sensor_id;sensor_type;location;lat;lon;timestamp;P1;durP1;ratioP1;P2;durP2;ratioP2
9522;SDS011;63165;43.016;25.784;2022-09-23T00:01:00;9.85;;;3.85;;
9522;SDS011;63165;43.016;25.784;2022-09-23T00:03:29;12.27;;;4.90;;
9522;SDS011;63165;43.016;25.784;2022-09-23T00:05:58;14.82;;;5.60;;
9522;SDS011;63165;43.016;25.784;2022-09-23T00:08:26;17.80;;;6.00;;
9522;SDS011;63165;43.016;25.784;2022-09-23T00:10:55;15.00;;;5.60;;
9522;SDS011;63165;43.016;25.784;2022-09-23T00:13:22;13.30;;;5.57;;
9522;SDS011;63165;43.016;25.784;2022-09-23T00:15:50;15.50;;;5.53;;
9522;SDS011;63165;43.016;25.784;2022-09-23T00:18:18;20.33;;;6.47;;
9522;SDS011;63165;43.016;25.784;2022-09-23T00:20:45;13.15;;;5.30;;
9522;SDS011;63165;43.016;25.784;2022-09-23T00:23:13;12.00;;;4.97;;
9522;SDS011;63165;43.016;25.784;2022-09-23T00:25:40;12.73;;;4.78;;
9522;SDS011;63165;43.016;25.784;2022-09-23T00:28:09;11.73;;;4.57;;
9522;SDS011;63165;43.016;25.784;2022-09-23T00:30:36;12.80;;;5.00;;
9522;SDS011;63165;43.016;25.784;2022-09-23T00:33:06;91.53;;;26.17;;
9522;SDS011;63165;43.016;25.784;2022-09-23T00:35:33;60.63;;;19.40;;
9522;SDS011;63165;43.016;25.784;2022-09-23T00:38:00;27.17;;;9.05;;
9522;SDS011;63165;43.016;25.784;2022-09-23T00:40:28;28.27;;;8.95;;
9522;SDS011;63165;43.016;25.784;2022-09-23T00:42:55;22.55;;;7.78;;
9522;SDS011;63165;43.016;25.784;2022-09-23T00:45:24;21.63;;;6.45;;
9522;SDS011;63165;43.016;25.784;2022-09-23T00:47:51;11.82;;;4.80;;
9522;SDS011;63165;43.016;25.784;2022-09-23T00:50:21;12.07;;;4.57;;
9522;SDS011;63165;43.016;25.784;2022-09-23T00:52:52;10.13;;;4.20;;
9522;SDS011;63165;43.016;25.784;2022-09-23T00:55:22;10.55;;;4.25;;
9522;SDS011;63165;43.016;25.784;2022-09-23T00:57:54;8.77;;;3.50;;
9522;SDS011;63165;43.016;25.784;2022-09-23T01:00:25;7.15;;;3.45;;
9522;SDS011;63165;43.016;25.784;2022-09-23T01:02:52;9.27;;;3.25;;
9522;SDS011;63165;43.016;25.784;2022-09-23T01:05:20;8.02;;;3.47;;
9522;SDS011;63165;43.016;25.784;2022-09-23T01:07:47;6.50;;;3.15;;
9522;SDS011;63165;43.016;25.784;2022-09-23T01:10:15;9.32;;;3.40;;
9522;SDS011;63165;43.016;25.784;2022-09-23T01:12:57;6.88;;;3.17;;
9522;SDS011;63165;43.016;25.784;2022-09-23T01:15:36;11.52;;;3.47;;
9522;SDS011;63165;43.016;25.784;2022-09-23T01:18:14;11.05;;;3.55;;
9522;SDS011;63165;43.016;25.784;2022-09-23T01:21:03;8.68;;;3.30;;
9522;SDS011;63165;43.016;25.784;2022-09-23T01:23:50;9.27;;;3.30;;
9522;SDS011;63165;43.016;25.784;2022-09-23T01:26:53;12.20;;;4.00;;
9522;SDS011;63165;43.016;25.784;2022-09-23T01:29:51;10.98;;;3.88;;
9522;SDS011;63165;43.016;25.784;2022-09-23T01:32:35;6.90;;;3.17;;
9522;SDS011;63165;43.016;25.784;2022-09-23T01:35:09;9.35;;;3.63;;
9522;SDS011;63165;43.016;25.784;2022-09-23T01:37:47;7.22;;;3.45;;
9522;SDS011;63165;43.016;25.784;2022-09-23T01:40:22;12.32;;;4.38;;
9522;SDS011;63165;43.016;25.784;2022-09-23T01:42:57;8.98;;;3.88;;
9522;SDS011;63165;43.016;25.784;2022-09-23T01:45:32;12.15;;;3.83;;
9522;SDS011;63165;43.016;25.784;2022-09-23T01:48:08;14.13;;;3.95;;
9522;SDS011;63165;43.016;25.784;2022-09-23T01:50:41;9.50;;;3.78;;
9522;SDS011;63165;43.016;25.784;2022-09-23T01:53:24;12.45;;;4.15;;
9522;SDS011;63165;43.016;25.784;2022-09-23T01:55:58;11.77;;;4.35;;
9522;SDS011;63165;43.016;25.784;2022-09-23T01:58:32;11.65;;;4.13;;
9522;SDS011;63165;43.016;25.784;2022-09-23T02:01:06;19.48;;;4.30;;
9522;SDS011;63165;43.016;25.784;2022-09-23T02:03:39;15.23;;;5.07;;
9522;SDS011;63165;43.016;25.784;2022-09-23T02:06:10;12.38;;;4.70;;
9522;SDS011;63165;43.016;25.784;2022-09-23T02:08:42;13.13;;;4.40;;
9522;SDS011;63165;43.016;25.784;2022-09-23T02:11:13;14.30;;;4.55;;
9522;SDS011;63165;43.016;25.784;2022-09-23T02:13:44;18.45;;;4.18;;
9522;SDS011;63165;43.016;25.784;2022-09-23T02:16:18;15.02;;;4.60;;
9522;SDS011;63165;43.016;25.784;2022-09-23T02:18:52;11.18;;;3.70;;
9522;SDS011;63165;43.016;25.784;2022-09-23T02:21:24;10.07;;;4.30;;
9522;SDS011;63165;43.016;25.784;2022-09-23T02:23:56;12.73;;;4.60;;
9522;SDS011;63165;43.016;25.784;2022-09-23T02:26:29;11.90;;;4.28;;
9522;SDS011;63165;43.016;25.784;2022-09-23T02:29:03;13.70;;;4.75;;
9522;SDS011;63165;43.016;25.784;2022-09-23T02:31:37;13.48;;;6.20;;
9522;SDS011;63165;43.016;25.784;2022-09-23T02:34:19;14.90;;;6.32;;
9522;SDS011;63165;43.016;25.784;2022-09-23T02:36:55;30.67;;;10.57;;
9522;SDS011;63165;43.016;25.784;2022-09-23T02:39:33;27.67;;;9.25;;
9522;SDS011;63165;43.016;25.784;2022-09-23T02:42:11;19.02;;;7.63;;
9522;SDS011;63165;43.016;25.784;2022-09-23T02:44:41;17.15;;;7.20;;
9522;SDS011;63165;43.016;25.784;2022-09-23T02:47:08;18.73;;;7.70;;
9522;SDS011;63165;43.016;25.784;2022-09-23T02:49:37;16.27;;;7.32;;
9522;SDS011;63165;43.016;25.784;2022-09-23T02:52:05;11.35;;;5.25;;
9522;SDS011;63165;43.016;25.784;2022-09-23T02:54:32;9.20;;;3.92;;
9522;SDS011;63165;43.016;25.784;2022-09-23T02:57:00;11.98;;;5.05;;
9522;SDS011;63165;43.016;25.784;2022-09-23T02:59:31;14.50;;;4.78;;
9522;SDS011;63165;43.016;25.784;2022-09-23T03:02:08;14.57;;;4.78;;
9522;SDS011;63165;43.016;25.784;2022-09-23T03:04:45;11.73;;;4.60;;
9522;SDS011;63165;43.016;25.784;2022-09-23T03:07:19;10.90;;;3.80;;
9522;SDS011;63165;43.016;25.784;2022-09-23T03:10:02;11.73;;;3.78;;
9522;SDS011;63165;43.016;25.784;2022-09-23T03:12:37;10.77;;;4.20;;
9522;SDS011;63165;43.016;25.784;2022-09-23T03:15:19;10.23;;;3.92;;
9522;SDS011;63165;43.016;25.784;2022-09-23T03:17:51;9.10;;;3.57;;
9522;SDS011;63165;43.016;25.784;2022-09-23T03:20:28;10.57;;;3.92;;
9522;SDS011;63165;43.016;25.784;2022-09-23T03:23:00;14.75;;;4.32;;
9522;SDS011;63165;43.016;25.784;2022-09-23T03:25:32;11.32;;;4.00;;
9522;SDS011;63165;43.016;25.784;2022-09-23T03:28:03;10.50;;;4.22;;
9522;SDS011;63165;43.016;25.784;2022-09-23T03:30:32;11.30;;;4.53;;
9522;SDS011;63165;43.016;25.784;2022-09-23T03:33:02;13.48;;;4.50;;
9522;SDS011;63165;43.016;25.784;2022-09-23T03:35:33;15.93;;;5.10;;
9522;SDS011;63165;43.016;25.784;2022-09-23T03:38:24;9.65;;;4.35;;
9522;SDS011;63165;43.016;25.784;2022-09-23T03:40:54;9.38;;;4.20;;
9522;SDS011;63165;43.016;25.784;2022-09-23T03:43:23;13.15;;;4.95;;
9522;SDS011;63165;43.016;25.784;2022-09-23T03:45:52;11.65;;;4.65;;
9522;SDS011;63165;43.016;25.784;2022-09-23T03:48:21;11.82;;;4.63;;
9522;SDS011;63165;43.016;25.784;2022-09-23T03:50:50;21.08;;;7.63;;
9522;SDS011;63165;43.016;25.784;2022-09-23T03:53:17;19.23;;;6.50;;
9522;SDS011;63165;43.016;25.784;2022-09-23T03:55:45;18.58;;;6.22;;
9522;SDS011;63165;43.016;25.784;2022-09-23T03:58:12;13.45;;;5.50;;
9522;SDS011;63165;43.016;25.784;2022-09-23T04:00:40;11.40;;;4.80;;
9522;SDS011;63165;43.016;25.784;2022-09-23T04:03:07;11.27;;;4.47;;
9522;SDS011;63165;43.016;25.784;2022-09-23T04:05:34;12.75;;;4.97;;
9522;SDS011;63165;43.016;25.784;2022-09-23T04:08:03;10.45;;;4.60;;
9522;SDS011;63165;43.016;25.784;2022-09-23T04:10:30;11.38;;;4.93;;
9522;SDS011;63165;43.016;25.784;2022-09-23T04:12:58;12.82;;;4.72;;
9522;SDS011;63165;43.016;25.784;2022-09-23T04:15:25;11.48;;;4.70;;
9522;SDS011;63165;43.016;25.784;2022-09-23T04:17:52;10.60;;;5.45;;
9522;SDS011;63165;43.016;25.784;2022-09-23T04:20:19;13.45;;;5.43;;
9522;SDS011;63165;43.016;25.784;2022-09-23T04:22:47;14.85;;;5.80;;
9522;SDS011;63165;43.016;25.784;2022-09-23T04:25:15;19.67;;;7.25;;
9522;SDS011;63165;43.016;25.784;2022-09-23T04:27:42;20.77;;;8.30;;
9522;SDS011;63165;43.016;25.784;2022-09-23T04:30:10;22.65;;;9.93;;
9522;SDS011;63165;43.016;25.784;2022-09-23T04:32:38;25.15;;;10.55;;
9522;SDS011;63165;43.016;25.784;2022-09-23T04:35:06;27.73;;;12.13;;
9522;SDS011;63165;43.016;25.784;2022-09-23T04:37:33;26.85;;;11.85;;
9522;SDS011;63165;43.016;25.784;2022-09-23T04:40:00;25.00;;;11.73;;
9522;SDS011;63165;43.016;25.784;2022-09-23T04:42:29;30.63;;;13.57;;
9522;SDS011;63165;43.016;25.784;2022-09-23T04:44:56;26.15;;;11.60;;
9522;SDS011;63165;43.016;25.784;2022-09-23T04:47:24;22.23;;;10.02;;
9522;SDS011;63165;43.016;25.784;2022-09-23T04:49:51;27.20;;;10.65;;
9522;SDS011;63165;43.016;25.784;2022-09-23T04:52:18;23.13;;;9.95;;
9522;SDS011;63165;43.016;25.784;2022-09-23T04:54:46;21.85;;;9.25;;
9522;SDS011;63165;43.016;25.784;2022-09-23T04:57:13;22.27;;;9.70;;
9522;SDS011;63165;43.016;25.784;2022-09-23T04:59:42;18.90;;;9.13;;
9522;SDS011;63165;43.016;25.784;2022-09-23T05:02:09;21.45;;;8.55;;
9522;SDS011;63165;43.016;25.784;2022-09-23T05:04:37;18.02;;;7.90;;
9522;SDS011;63165;43.016;25.784;2022-09-23T05:07:05;20.50;;;9.40;;
9522;SDS011;63165;43.016;25.784;2022-09-23T05:09:32;32.70;;;14.40;;
9522;SDS011;63165;43.016;25.784;2022-09-23T05:11:59;19.50;;;9.50;;
9522;SDS011;63165;43.016;25.784;2022-09-23T05:14:27;18.13;;;8.18;;
9522;SDS011;63165;43.016;25.784;2022-09-23T05:16:55;19.33;;;7.68;;
9522;SDS011;63165;43.016;25.784;2022-09-23T05:19:22;22.33;;;7.15;;
9522;SDS011;63165;43.016;25.784;2022-09-23T05:21:50;12.40;;;5.28;;
9522;SDS011;63165;43.016;25.784;2022-09-23T05:24:17;11.52;;;4.80;;
9522;SDS011;63165;43.016;25.784;2022-09-23T05:26:44;14.07;;;5.65;;
9522;SDS011;63165;43.016;25.784;2022-09-23T05:29:12;16.88;;;6.22;;
9522;SDS011;63165;43.016;25.784;2022-09-23T05:31:39;13.05;;;5.85;;
9522;SDS011;63165;43.016;25.784;2022-09-23T05:34:08;15.50;;;6.50;;
9522;SDS011;63165;43.016;25.784;2022-09-23T05:36:35;19.70;;;6.43;;
9522;SDS011;63165;43.016;25.784;2022-09-23T05:39:03;16.48;;;6.40;;
9522;SDS011;63165;43.016;25.784;2022-09-23T05:41:30;42.72;;;13.45;;
9522;SDS011;63165;43.016;25.784;2022-09-23T05:43:58;45.10;;;14.25;;
9522;SDS011;63165;43.016;25.784;2022-09-23T05:46:26;28.75;;;9.30;;
9522;SDS011;63165;43.016;25.784;2022-09-23T05:48:54;21.98;;;7.95;;
9522;SDS011;63165;43.016;25.784;2022-09-23T05:51:24;24.85;;;8.00;;
9522;SDS011;63165;43.016;25.784;2022-09-23T05:53:52;19.23;;;7.40;;
9522;SDS011;63165;43.016;25.784;2022-09-23T05:56:22;19.45;;;7.30;;
9522;SDS011;63165;43.016;25.784;2022-09-23T05:58:51;19.45;;;8.20;;
9522;SDS011;63165;43.016;25.784;2022-09-23T06:01:20;19.98;;;7.07;;
9522;SDS011;63165;43.016;25.784;2022-09-23T06:03:49;21.08;;;8.40;;
9522;SDS011;63165;43.016;25.784;2022-09-23T06:06:17;19.10;;;8.48;;
9522;SDS011;63165;43.016;25.784;2022-09-23T06:08:48;20.33;;;7.57;;
9522;SDS011;63165;43.016;25.784;2022-09-23T06:11:15;12.73;;;6.10;;
9522;SDS011;63165;43.016;25.784;2022-09-23T06:13:43;16.48;;;6.22;;
9522;SDS011;63165;43.016;25.784;2022-09-23T06:16:12;17.58;;;6.00;;
9522;SDS011;63165;43.016;25.784;2022-09-23T06:18:41;11.25;;;5.30;;
9522;SDS011;63165;43.016;25.784;2022-09-23T06:21:11;18.90;;;6.53;;
9522;SDS011;63165;43.016;25.784;2022-09-23T06:23:39;11.00;;;5.32;;
9522;SDS011;63165;43.016;25.784;2022-09-23T06:26:09;13.18;;;5.60;;
9522;SDS011;63165;43.016;25.784;2022-09-23T06:28:38;14.73;;;5.95;;
9522;SDS011;63165;43.016;25.784;2022-09-23T06:31:08;10.40;;;5.40;;
9522;SDS011;63165;43.016;25.784;2022-09-23T06:33:37;9.88;;;4.47;;
9522;SDS011;63165;43.016;25.784;2022-09-23T06:36:05;7.43;;;3.42;;
9522;SDS011;63165;43.016;25.784;2022-09-23T06:38:33;6.50;;;3.60;;
9522;SDS011;63165;43.016;25.784;2022-09-23T06:41:03;8.65;;;4.00;;
9522;SDS011;63165;43.016;25.784;2022-09-23T06:43:32;7.05;;;3.38;;
9522;SDS011;63165;43.016;25.784;2022-09-23T06:46:00;8.52;;;4.07;;
9522;SDS011;63165;43.016;25.784;2022-09-23T06:48:29;6.97;;;3.30;;
9522;SDS011;63165;43.016;25.784;2022-09-23T06:50:59;6.47;;;3.20;;
9522;SDS011;63165;43.016;25.784;2022-09-23T06:53:28;5.80;;;2.85;;
9522;SDS011;63165;43.016;25.784;2022-09-23T06:55:57;6.80;;;3.42;;
9522;SDS011;63165;43.016;25.784;2022-09-23T06:58:25;4.45;;;2.75;;
9522;SDS011;63165;43.016;25.784;2022-09-23T07:00:54;6.25;;;2.95;;
9522;SDS011;63165;43.016;25.784;2022-09-23T07:03:26;7.00;;;2.40;;
9522;SDS011;63165;43.016;25.784;2022-09-23T07:05:54;4.88;;;2.67;;
9522;SDS011;63165;43.016;25.784;2022-09-23T07:08:21;6.25;;;2.70;;
9522;SDS011;63165;43.016;25.784;2022-09-23T07:10:52;4.32;;;2.50;;
9522;SDS011;63165;43.016;25.784;2022-09-23T07:13:19;5.82;;;2.45;;
9522;SDS011;63165;43.016;25.784;2022-09-23T07:15:50;5.30;;;2.50;;
9522;SDS011;63165;43.016;25.784;2022-09-23T07:18:19;5.05;;;2.50;;
9522;SDS011;63165;43.016;25.784;2022-09-23T07:20:48;5.13;;;2.60;;
9522;SDS011;63165;43.016;25.784;2022-09-23T07:23:15;5.10;;;2.10;;
9522;SDS011;63165;43.016;25.784;2022-09-23T07:25:43;5.43;;;2.20;;
9522;SDS011;63165;43.016;25.784;2022-09-23T07:28:11;5.28;;;2.55;;
9522;SDS011;63165;43.016;25.784;2022-09-23T07:30:38;3.47;;;2.03;;
9522;SDS011;63165;43.016;25.784;2022-09-23T07:33:07;3.97;;;2.10;;
9522;SDS011;63165;43.016;25.784;2022-09-23T07:35:37;4.95;;;2.28;;
9522;SDS011;63165;43.016;25.784;2022-09-23T07:38:05;4.43;;;2.10;;
9522;SDS011;63165;43.016;25.784;2022-09-23T07:40:33;5.47;;;2.28;;
9522;SDS011;63165;43.016;25.784;2022-09-23T07:43:00;4.10;;;2.28;;
9522;SDS011;63165;43.016;25.784;2022-09-23T07:45:29;8.32;;;2.60;;
9522;SDS011;63165;43.016;25.784;2022-09-23T07:47:58;3.08;;;2.10;;
9522;SDS011;63165;43.016;25.784;2022-09-23T07:50:25;3.65;;;1.83;;
9522;SDS011;63165;43.016;25.784;2022-09-23T07:52:58;4.00;;;1.98;;
9522;SDS011;63165;43.016;25.784;2022-09-23T07:55:27;4.05;;;1.88;;
9522;SDS011;63165;43.016;25.784;2022-09-23T07:57:54;4.55;;;2.08;;
9522;SDS011;63165;43.016;25.784;2022-09-23T08:00:21;4.80;;;1.77;;
9522;SDS011;63165;43.016;25.784;2022-09-23T08:02:48;5.78;;;1.80;;
9522;SDS011;63165;43.016;25.784;2022-09-23T08:05:16;3.42;;;1.70;;
9522;SDS011;63165;43.016;25.784;2022-09-23T08:07:44;2.42;;;1.58;;
9522;SDS011;63165;43.016;25.784;2022-09-23T08:10:14;2.45;;;1.40;;
9522;SDS011;63165;43.016;25.784;2022-09-23T08:12:45;5.13;;;1.60;;
9522;SDS011;63165;43.016;25.784;2022-09-23T08:15:13;2.72;;;1.60;;
9522;SDS011;63165;43.016;25.784;2022-09-23T08:17:41;3.13;;;1.63;;
9522;SDS011;63165;43.016;25.784;2022-09-23T08:20:09;2.28;;;1.50;;
9522;SDS011;63165;43.016;25.784;2022-09-23T08:22:58;2.40;;;1.30;;
9522;SDS011;63165;43.016;25.784;2022-09-23T08:25:27;2.92;;;1.50;;
9522;SDS011;63165;43.016;25.784;2022-09-23T08:27:55;4.88;;;1.58;;
9522;SDS011;63165;43.016;25.784;2022-09-23T08:30:23;2.90;;;1.63;;
9522;SDS011;63165;43.016;25.784;2022-09-23T08:32:51;3.28;;;1.65;;
9522;SDS011;63165;43.016;25.784;2022-09-23T08:35:18;6.25;;;2.10;;
9522;SDS011;63165;43.016;25.784;2022-09-23T08:37:45;3.58;;;1.60;;
9522;SDS011;63165;43.016;25.784;2022-09-23T08:40:12;3.00;;;1.55;;
9522;SDS011;63165;43.016;25.784;2022-09-23T08:42:41;5.28;;;1.77;;
9522;SDS011;63165;43.016;25.784;2022-09-23T08:45:13;2.95;;;1.50;;
9522;SDS011;63165;43.016;25.784;2022-09-23T08:47:48;3.55;;;1.60;;
9522;SDS011;63165;43.016;25.784;2022-09-23T08:50:18;4.97;;;1.55;;
9522;SDS011;63165;43.016;25.784;2022-09-23T08:52:48;2.88;;;1.73;;
9522;SDS011;63165;43.016;25.784;2022-09-23T08:55:19;2.83;;;1.80;;
9522;SDS011;63165;43.016;25.784;2022-09-23T08:58:22;6.40;;;1.90;;
9522;SDS011;63165;43.016;25.784;2022-09-23T09:00:58;4.22;;;1.42;;
9522;SDS011;63165;43.016;25.784;2022-09-23T09:03:35;3.33;;;1.63;;
9522;SDS011;63165;43.016;25.784;2022-09-23T09:06:06;3.25;;;1.75;;
9522;SDS011;63165;43.016;25.784;2022-09-23T09:08:39;3.17;;;1.75;;
9522;SDS011;63165;43.016;25.784;2022-09-23T09:11:08;3.58;;;1.85;;
9522;SDS011;63165;43.016;25.784;2022-09-23T09:13:43;3.75;;;1.70;;
9522;SDS011;63165;43.016;25.784;2022-09-23T09:16:22;2.30;;;1.50;;
9522;SDS011;63165;43.016;25.784;2022-09-23T09:19:03;4.85;;;2.03;;
9522;SDS011;63165;43.016;25.784;2022-09-23T09:21:41;4.43;;;1.90;;
9522;SDS011;63165;43.016;25.784;2022-09-23T09:24:15;4.78;;;1.80;;
9522;SDS011;63165;43.016;25.784;2022-09-23T09:26:45;5.28;;;1.90;;
9522;SDS011;63165;43.016;25.784;2022-09-23T09:29:15;3.17;;;1.90;;
9522;SDS011;63165;43.016;25.784;2022-09-23T09:31:47;4.30;;;1.63;;
9522;SDS011;63165;43.016;25.784;2022-09-23T09:34:20;5.75;;;1.95;;
9522;SDS011;63165;43.016;25.784;2022-09-23T09:36:56;3.67;;;1.80;;
9522;SDS011;63165;43.016;25.784;2022-09-23T09:39:29;6.00;;;2.03;;
9522;SDS011;63165;43.016;25.784;2022-09-23T09:41:57;3.97;;;1.90;;
9522;SDS011;63165;43.016;25.784;2022-09-23T09:44:29;4.13;;;2.00;;
9522;SDS011;63165;43.016;25.784;2022-09-23T09:47:07;4.63;;;1.67;;
9522;SDS011;63165;43.016;25.784;2022-09-23T09:49:52;4.82;;;2.00;;
9522;SDS011;63165;43.016;25.784;2022-09-23T09:52:26;5.22;;;1.40;;
9522;SDS011;63165;43.016;25.784;2022-09-23T09:55:13;6.85;;;1.80;;
9522;SDS011;63165;43.016;25.784;2022-09-23T09:57:50;6.93;;;2.17;;
9522;SDS011;63165;43.016;25.784;2022-09-23T10:00:41;3.37;;;2.00;;
9522;SDS011;63165;43.016;25.784;2022-09-23T10:06:12;8.75;;;5.20;;
9522;SDS011;63165;43.016;25.784;2022-09-23T10:08:41;3.13;;;1.83;;
9522;SDS011;63165;43.016;25.784;2022-09-23T10:11:14;5.13;;;2.80;;
9522;SDS011;63165;43.016;25.784;2022-09-23T10:13:59;4.15;;;2.00;;
9522;SDS011;63165;43.016;25.784;2022-09-23T10:16:32;5.60;;;2.47;;
9522;SDS011;63165;43.016;25.784;2022-09-23T10:19:00;3.55;;;1.80;;
9522;SDS011;63165;43.016;25.784;2022-09-23T10:21:32;4.38;;;2.03;;
9522;SDS011;63165;43.016;25.784;2022-09-23T10:24:03;4.20;;;2.60;;
9522;SDS011;63165;43.016;25.784;2022-09-23T10:26:32;4.93;;;1.75;;
9522;SDS011;63165;43.016;25.784;2022-09-23T10:29:18;3.30;;;1.77;;
9522;SDS011;63165;43.016;25.784;2022-09-23T10:31:50;4.05;;;2.10;;
9522;SDS011;63165;43.016;25.784;2022-09-23T10:34:46;5.40;;;1.83;;
9522;SDS011;63165;43.016;25.784;2022-09-23T10:37:17;3.47;;;1.70;;
9522;SDS011;63165;43.016;25.784;2022-09-23T10:42:37;3.00;;;1.70;;
9522;SDS011;63165;43.016;25.784;2022-09-23T10:45:32;3.22;;;1.70;;
9522;SDS011;63165;43.016;25.784;2022-09-23T10:48:24;2.97;;;1.67;;
9522;SDS011;63165;43.016;25.784;2022-09-23T10:51:03;3.13;;;1.80;;
9522;SDS011;63165;43.016;25.784;2022-09-23T10:53:41;2.67;;;1.70;;
9522;SDS011;63165;43.016;25.784;2022-09-23T10:56:22;5.75;;;1.80;;
9522;SDS011;63165;43.016;25.784;2022-09-23T10:59:03;3.40;;;1.77;;
9522;SDS011;63165;43.016;25.784;2022-09-23T11:01:48;3.13;;;1.58;;
9522;SDS011;63165;43.016;25.784;2022-09-23T11:07:37;3.78;;;1.65;;
9522;SDS011;63165;43.016;25.784;2022-09-23T11:10:16;3.50;;;1.70;;
9522;SDS011;63165;43.016;25.784;2022-09-23T11:12:54;4.93;;;1.80;;
9522;SDS011;63165;43.016;25.784;2022-09-23T11:15:30;5.38;;;1.90;;
9522;SDS011;63165;43.016;25.784;2022-09-23T11:18:19;7.10;;;1.83;;
9522;SDS011;63165;43.016;25.784;2022-09-23T11:21:01;5.32;;;1.60;;
9522;SDS011;63165;43.016;25.784;2022-09-23T11:23:39;2.90;;;1.60;;
9522;SDS011;63165;43.016;25.784;2022-09-23T11:26:19;3.65;;;1.88;;
9522;SDS011;63165;43.016;25.784;2022-09-23T11:29:04;5.65;;;2.03;;
9522;SDS011;63165;43.016;25.784;2022-09-23T11:31:56;8.32;;;2.13;;
9522;SDS011;63165;43.016;25.784;2022-09-23T11:34:40;3.60;;;1.52;;
9522;SDS011;63165;43.016;25.784;2022-09-23T11:37:21;3.83;;;2.03;;
9522;SDS011;63165;43.016;25.784;2022-09-23T11:39:54;9.05;;;2.00;;
9522;SDS011;63165;43.016;25.784;2022-09-23T11:42:27;4.47;;;1.80;;
9522;SDS011;63165;43.016;25.784;2022-09-23T11:44:57;3.63;;;1.67;;
9522;SDS011;63165;43.016;25.784;2022-09-23T11:47:30;4.72;;;2.03;;
9522;SDS011;63165;43.016;25.784;2022-09-23T11:50:02;3.83;;;2.00;;
9522;SDS011;63165;43.016;25.784;2022-09-23T11:52:38;2.85;;;1.52;;
9522;SDS011;63165;43.016;25.784;2022-09-23T11:55:13;5.28;;;1.70;;
9522;SDS011;63165;43.016;25.784;2022-09-23T11:57:44;2.88;;;1.63;;
9522;SDS011;63165;43.016;25.784;2022-09-23T12:00:15;4.40;;;1.80;;
9522;SDS011;63165;43.016;25.784;2022-09-23T12:02:53;5.45;;;1.58;;
9522;SDS011;63165;43.016;25.784;2022-09-23T12:05:29;4.00;;;1.65;;
9522;SDS011;63165;43.016;25.784;2022-09-23T12:08:00;3.45;;;1.65;;
9522;SDS011;63165;43.016;25.784;2022-09-23T12:10:39;2.38;;;1.50;;
9522;SDS011;63165;43.016;25.784;2022-09-23T12:13:13;2.30;;;1.42;;
9522;SDS011;63165;43.016;25.784;2022-09-23T12:15:51;2.40;;;1.30;;
9522;SDS011;63165;43.016;25.784;2022-09-23T12:18:41;6.13;;;1.60;;
9522;SDS011;63165;43.016;25.784;2022-09-23T12:21:23;2.08;;;1.40;;
9522;SDS011;63165;43.016;25.784;2022-09-23T12:24:06;6.20;;;1.92;;
9522;SDS011;63165;43.016;25.784;2022-09-23T12:26:48;2.90;;;1.70;;
9522;SDS011;63165;43.016;25.784;2022-09-23T12:29:20;4.03;;;1.67;;
9522;SDS011;63165;43.016;25.784;2022-09-23T12:31:51;2.92;;;1.48;;
9522;SDS011;63165;43.016;25.784;2022-09-23T12:34:21;3.17;;;1.42;;
9522;SDS011;63165;43.016;25.784;2022-09-23T12:36:53;4.15;;;1.90;;
9522;SDS011;63165;43.016;25.784;2022-09-23T12:39:28;2.50;;;1.55;;
9522;SDS011;63165;43.016;25.784;2022-09-23T12:42:00;3.03;;;1.67;;
9522;SDS011;63165;43.016;25.784;2022-09-23T12:44:31;4.13;;;1.80;;
9522;SDS011;63165;43.016;25.784;2022-09-23T12:56:13;3.72;;;1.48;;
9522;SDS011;63165;43.016;25.784;2022-09-23T13:01:36;2.58;;;1.60;;
9522;SDS011;63165;43.016;25.784;2022-09-23T13:04:04;2.17;;;1.60;;
9522;SDS011;63165;43.016;25.784;2022-09-23T13:06:52;3.05;;;1.63;;
9522;SDS011;63165;43.016;25.784;2022-09-23T13:09:24;4.07;;;1.42;;
9522;SDS011;63165;43.016;25.784;2022-09-23T13:11:56;3.00;;;1.38;;
9522;SDS011;63165;43.016;25.784;2022-09-23T13:14:27;2.63;;;1.10;;
9522;SDS011;63165;43.016;25.784;2022-09-23T13:16:57;3.10;;;1.30;;
9522;SDS011;63165;43.016;25.784;2022-09-23T13:19:42;4.70;;;1.60;;
9522;SDS011;63165;43.016;25.784;2022-09-23T13:22:11;3.50;;;1.58;;
9522;SDS011;63165;43.016;25.784;2022-09-23T13:24:42;2.92;;;1.42;;
9522;SDS011;63165;43.016;25.784;2022-09-23T13:27:16;6.50;;;1.50;;
9522;SDS011;63165;43.016;25.784;2022-09-23T13:29:54;5.18;;;1.85;;
9522;SDS011;63165;43.016;25.784;2022-09-23T13:32:25;5.72;;;2.47;;
9522;SDS011;63165;43.016;25.784;2022-09-23T13:34:57;5.07;;;1.58;;
9522;SDS011;63165;43.016;25.784;2022-09-23T13:37:37;1.95;;;1.33;;
9522;SDS011;63165;43.016;25.784;2022-09-23T13:40:08;3.30;;;1.50;;
9522;SDS011;63165;43.016;25.784;2022-09-23T13:42:42;6.32;;;1.75;;
9522;SDS011;63165;43.016;25.784;2022-09-23T13:45:15;3.38;;;1.60;;
9522;SDS011;63165;43.016;25.784;2022-09-23T13:47:45;3.42;;;1.42;;
9522;SDS011;63165;43.016;25.784;2022-09-23T13:50:15;6.20;;;1.52;;
9522;SDS011;63165;43.016;25.784;2022-09-23T13:52:44;3.40;;;1.42;;
9522;SDS011;63165;43.016;25.784;2022-09-23T13:55:23;4.85;;;1.23;;
9522;SDS011;63165;43.016;25.784;2022-09-23T13:57:59;1.77;;;1.05;;
9522;SDS011;63165;43.016;25.784;2022-09-23T14:00:33;2.70;;;1.30;;
9522;SDS011;63165;43.016;25.784;2022-09-23T14:03:15;2.42;;;1.30;;
9522;SDS011;63165;43.016;25.784;2022-09-23T14:05:49;3.45;;;1.30;;
9522;SDS011;63165;43.016;25.784;2022-09-23T14:08:17;9.95;;;1.95;;
9522;SDS011;63165;43.016;25.784;2022-09-23T14:10:45;7.57;;;1.60;;
9522;SDS011;63165;43.016;25.784;2022-09-23T14:13:14;8.52;;;1.60;;
9522;SDS011;63165;43.016;25.784;2022-09-23T14:15:45;12.88;;;1.83;;
9522;SDS011;63165;43.016;25.784;2022-09-23T14:18:16;5.18;;;1.73;;
9522;SDS011;63165;43.016;25.784;2022-09-23T14:20:53;6.15;;;1.90;;
9522;SDS011;63165;43.016;25.784;2022-09-23T14:23:20;9.82;;;2.30;;
9522;SDS011;63165;43.016;25.784;2022-09-23T14:25:48;7.40;;;3.53;;
9522;SDS011;63165;43.016;25.784;2022-09-23T14:28:17;14.27;;;4.80;;
9522;SDS011;63165;43.016;25.784;2022-09-23T14:30:48;11.43;;;5.10;;
9522;SDS011;63165;43.016;25.784;2022-09-23T14:33:21;8.45;;;3.85;;
9522;SDS011;63165;43.016;25.784;2022-09-23T14:35:51;17.40;;;6.97;;
9522;SDS011;63165;43.016;25.784;2022-09-23T14:38:22;12.02;;;5.68;;
9522;SDS011;63165;43.016;25.784;2022-09-23T14:41:12;10.43;;;3.08;;
9522;SDS011;63165;43.016;25.784;2022-09-23T14:43:50;10.60;;;2.97;;
9522;SDS011;63165;43.016;25.784;2022-09-23T14:46:23;5.97;;;2.55;;
9522;SDS011;63165;43.016;25.784;2022-09-23T14:49:02;7.50;;;2.08;;
9522;SDS011;63165;43.016;25.784;2022-09-23T14:51:34;7.45;;;2.70;;
9522;SDS011;63165;43.016;25.784;2022-09-23T14:56:58;4.38;;;1.83;;
9522;SDS011;63165;43.016;25.784;2022-09-23T14:59:27;5.40;;;2.05;;
9522;SDS011;63165;43.016;25.784;2022-09-23T15:01:59;4.65;;;2.50;;
9522;SDS011;63165;43.016;25.784;2022-09-23T15:04:27;5.28;;;2.35;;
9522;SDS011;63165;43.016;25.784;2022-09-23T15:06:57;7.53;;;2.88;;
9522;SDS011;63165;43.016;25.784;2022-09-23T15:09:29;7.88;;;3.10;;
9522;SDS011;63165;43.016;25.784;2022-09-23T15:11:59;6.45;;;3.00;;
9522;SDS011;63165;43.016;25.784;2022-09-23T15:14:29;6.18;;;2.78;;
9522;SDS011;63165;43.016;25.784;2022-09-23T15:17:04;5.47;;;2.47;;
9522;SDS011;63165;43.016;25.784;2022-09-23T15:19:38;16.50;;;5.57;;
9522;SDS011;63165;43.016;25.784;2022-09-23T15:22:06;4.55;;;2.80;;
9522;SDS011;63165;43.016;25.784;2022-09-23T15:24:39;10.68;;;5.25;;
9522;SDS011;63165;43.016;25.784;2022-09-23T15:27:09;7.60;;;3.03;;
9522;SDS011;63165;43.016;25.784;2022-09-23T15:29:49;7.28;;;2.92;;
9522;SDS011;63165;43.016;25.784;2022-09-23T15:32:19;8.90;;;3.45;;
9522;SDS011;63165;43.016;25.784;2022-09-23T15:34:47;32.75;;;12.27;;